NCAR-RAP Real-Time Weather Data

Output produced by METARs form (10 April 2020  06:33 UTC)
found at http://weather.rap.ucar.edu/surface/
 
KROC 100554Z 28015G23KT 10SM FEW020 BKN040 OVC060 03/M03 A2936 RMK AO2 PK WND 28028/0532 SNE04 SLP949 P0000 60000 T00281033 10056 20022 56008 $